This is the latest recevied weather packets stored in our database for station/object KQ4KX. If no packets are shown the sender has not sent any weather packets the latest 10 day(s).
| Time | Temp. | Humidity | Pressure | Rain* | Wind** | Luminosity | Snow |
|---|---|---|---|---|---|---|---|
| 1777474975 | 27.78° C | 73% | 1018.1 hPa | 0 mm | - | - | - |
| 1777474645 | 27.78° C | 76% | 1018.2 hPa | 0 mm | - | - | - |
| 1777474345 | 27.78° C | 76% | 1018.2 hPa | 0 mm | - | - | - |
| 1777473385 | 26.67° C | 80% | 1018 hPa | 0 mm | - | - | - |
| 1777473055 | 26.11° C | 81% | 1018.2 hPa | 0 mm | - | - | - |
| 1777472726 | 26.11° C | 81% | 1018.4 hPa | 0 mm | - | - | - |
| 1777472395 | 25.56° C | 84% | 1018.4 hPa | 0 mm | - | - | - |
| 1777471766 | 25° C | 85% | 1018.2 hPa | 0 mm | - | - | - |
| 1777471465 | 25° C | 85% | 1018.4 hPa | 0 mm | - | - | - |
| 1777471165 | 24.44° C | 85% | 1018.5 hPa | 0 mm | - | - | - |
| 1777470865 | 24.44° C | 87% | 1018.5 hPa | 0 mm | - | - | - |
| 1777470535 | 24.44° C | 88% | 1018.3 hPa | 0 mm | - | - | - |
| 1777469905 | 23.89° C | 89% | 1017.9 hPa | 0 mm | - | - | - |
| 1777469575 | 23.89° C | 90% | 1018 hPa | 0 mm | - | - | - |
| 1777468015 | 22.78° C | 93% | 1017.9 hPa | 0 mm | - | - | - |
| 1777467055 | 22.22° C | 93% | 1017.9 hPa | 0 mm | - | - | - |
| 1777466755 | 22.22° C | 94% | 1017.9 hPa | 0 mm | - | - | - |
| 1777466455 | 22.22° C | 94% | 1017.8 hPa | 0 mm | - | - | - |
| 1777466155 | 22.22° C | 95% | 1017.8 hPa | 0 mm | - | - | - |
| 1777465855 | 22.22° C | 96% | 1017.8 hPa | 0 mm | - | - | - |
| 1777464565 | 21.11° C | 98% | 1017.5 hPa | 0 mm | - | - | - |
| 1777464265 | 21.11° C | 99% | 1017.4 hPa | 0 mm | - | - | - |
| 1777463935 | 20.56° C | 99% | 1017.3 hPa | 0 mm | - | - | - |
| 1777461385 | 19.44° C | 100% | 1016.7 hPa | 0 mm | - | - | - |
| 1777461057 | 19.44° C | 100% | 1016.6 hPa | 0 mm | - | - | - |
* Rain latest hour (hover to see other rain measurements)
** Current wind speed in m/s (hover to see current wind gust speed)